Terminal Aerodrome Forecast
Issued by NWS Louisville, KY

Current Version | Previous Version | Text Only | Print | Product List | Glossary On
Versions: 1 2 3 4 5 6 7 8 9 10 11 12 13 14 15 16 17 18
257
FTUS43 KLMK 270524
TAFSDF
TAF
KSDF 270524Z 2706/2812 22005KT P6SM SCT050 BKN250
     FM271600 18008KT P6SM VCSH BKN060
     FM280000 18010KT P6SM VCTS SCT035CB BKN080=

USA.gov is the U.S. government's official web portal to all federal, state and local government web resources and services.